Terminal Aerodrome Forecast
Issued by NWS

Home | Current Version | Previous Version | Graphics & Text | Print | Product List | Glossary On
Versions: 1 2 3 4 5 6 7 8 9 10 11 12 13 14 15 16 17
000
FTUS42 KMHX 160500
TAFOAJ
TAF
KOAJ 160532Z 1606/1706 34015G25KT P6SM BKN020
     FM160900 36015G25KT P6SM SKC
     FM161800 03015G20KT P6SM SKC
     FM170000 04010KT P6SM SKC
      AMD LTD TO CLD VIS AND WIND=

USA.gov is the U.S. government's official web portal to all federal, state and local government web resources and services.